sensor_id;sensor_type;location;lat;lon;timestamp;pressure;altitude;pressure_sealevel;temperature;humidity
58239;BME280;44037;55.638;37.356;2023-06-04T00:00:54;99340.88;;;5.61;100.00
58239;BME280;44037;55.638;37.356;2023-06-04T00:03:23;99346.81;;;5.59;100.00
58239;BME280;44037;55.638;37.356;2023-06-04T00:05:50;99349.31;;;5.56;100.00
58239;BME280;44037;55.638;37.356;2023-06-04T00:08:17;99355.28;;;5.54;100.00
58239;BME280;44037;55.638;37.356;2023-06-04T00:10:44;99354.31;;;5.51;100.00
58239;BME280;44037;55.638;37.356;2023-06-04T00:13:11;99359.34;;;5.46;100.00
58239;BME280;44037;55.638;37.356;2023-06-04T00:15:40;99357.56;;;5.44;100.00
58239;BME280;44037;55.638;37.356;2023-06-04T00:18:08;99356.63;;;5.40;100.00
58239;BME280;44037;55.638;37.356;2023-06-04T00:20:36;99365.16;;;5.39;100.00
58239;BME280;44037;55.638;37.356;2023-06-04T00:23:04;99364.25;;;5.37;100.00
58239;BME280;44037;55.638;37.356;2023-06-04T00:25:31;99359.06;;;5.35;100.00
58239;BME280;44037;55.638;37.356;2023-06-04T00:27:58;99371.06;;;5.35;100.00
58239;BME280;44037;55.638;37.356;2023-06-04T00:30:25;99371.00;;;5.33;100.00
58239;BME280;44037;55.638;37.356;2023-06-04T00:32:54;99367.59;;;5.33;100.00
58239;BME280;44037;55.638;37.356;2023-06-04T00:35:21;99364.13;;;5.32;100.00
58239;BME280;44037;55.638;37.356;2023-06-04T00:37:48;99371.81;;;5.31;100.00
58239;BME280;44037;55.638;37.356;2023-06-04T00:40:16;99376.94;;;5.31;100.00
58239;BME280;44037;55.638;37.356;2023-06-04T00:42:44;99377.78;;;5.31;100.00
58239;BME280;44037;55.638;37.356;2023-06-04T00:45:11;99376.94;;;5.31;100.00
58239;BME280;44037;55.638;37.356;2023-06-04T00:47:41;99375.19;;;5.30;100.00
58239;BME280;44037;55.638;37.356;2023-06-04T00:50:10;99379.41;;;5.28;100.00
58239;BME280;44037;55.638;37.356;2023-06-04T00:52:38;99378.56;;;5.27;100.00
58239;BME280;44037;55.638;37.356;2023-06-04T00:55:06;99386.28;;;5.27;100.00
58239;BME280;44037;55.638;37.356;2023-06-04T00:57:33;99385.38;;;5.27;100.00
58239;BME280;44037;55.638;37.356;2023-06-04T01:00:00;99393.97;;;5.27;100.00
58239;BME280;44037;55.638;37.356;2023-06-04T01:02:33;99393.19;;;5.30;100.00
58239;BME280;44037;55.638;37.356;2023-06-04T01:05:07;99398.34;;;5.31;100.00
58239;BME280;44037;55.638;37.356;2023-06-04T01:07:39;99400.16;;;5.34;100.00
58239;BME280;44037;55.638;37.356;2023-06-04T01:10:11;99388.16;;;5.34;100.00
58239;BME280;44037;55.638;37.356;2023-06-04T01:12:39;99396.78;;;5.36;100.00
58239;BME280;44037;55.638;37.356;2023-06-04T01:15:08;99395.97;;;5.37;100.00
58239;BME280;44037;55.638;37.356;2023-06-04T01:17:39;99401.19;;;5.41;100.00
58239;BME280;44037;55.638;37.356;2023-06-04T01:20:25;99403.78;;;5.42;100.00
58239;BME280;44037;55.638;37.356;2023-06-04T01:23:05;99405.63;;;5.48;100.00
58239;BME280;44037;55.638;37.356;2023-06-04T01:25:40;99410.88;;;5.51;100.00
58239;BME280;44037;55.638;37.356;2023-06-04T01:28:12;99410.91;;;5.52;100.00
58239;BME280;44037;55.638;37.356;2023-06-04T01:30:43;99413.56;;;5.57;100.00
58239;BME280;44037;55.638;37.356;2023-06-04T01:33:12;99417.97;;;5.61;100.00
58239;BME280;44037;55.638;37.356;2023-06-04T01:35:40;99417.19;;;5.64;100.00
58239;BME280;44037;55.638;37.356;2023-06-04T01:38:09;99421.53;;;5.66;100.00
58239;BME280;44037;55.638;37.356;2023-06-04T01:40:36;99425.88;;;5.69;100.00
58239;BME280;44037;55.638;37.356;2023-06-04T01:43:04;99422.50;;;5.72;100.00
58239;BME280;44037;55.638;37.356;2023-06-04T01:45:31;99420.88;;;5.75;100.00
58239;BME280;44037;55.638;37.356;2023-06-04T01:48:01;99430.44;;;5.79;100.00
58239;BME280;44037;55.638;37.356;2023-06-04T01:50:28;99427.06;;;5.82;100.00
58239;BME280;44037;55.638;37.356;2023-06-04T01:52:56;99426.31;;;5.86;100.00
58239;BME280;44037;55.638;37.356;2023-06-04T01:55:25;99429.91;;;5.93;100.00
58239;BME280;44037;55.638;37.356;2023-06-04T01:57:53;99435.34;;;6.04;100.00
58239;BME280;44037;55.638;37.356;2023-06-04T02:00:21;99429.72;;;6.20;100.00
58239;BME280;44037;55.638;37.356;2023-06-04T02:02:48;99433.69;;;6.44;100.00
58239;BME280;44037;55.638;37.356;2023-06-04T02:05:16;99423.88;;;6.66;100.00
58239;BME280;44037;55.638;37.356;2023-06-04T02:07:45;99438.94;;;6.88;100.00
58239;BME280;44037;55.638;37.356;2023-06-04T02:10:15;99434.16;;;7.07;100.00
58239;BME280;44037;55.638;37.356;2023-06-04T02:12:54;99441.44;;;7.28;100.00
58239;BME280;44037;55.638;37.356;2023-06-04T02:15:23;99444.38;;;7.48;100.00
58239;BME280;44037;55.638;37.356;2023-06-04T02:17:55;99446.41;;;7.65;100.00
58239;BME280;44037;55.638;37.356;2023-06-04T02:20:24;99444.94;;;7.79;100.00
58239;BME280;44037;55.638;37.356;2023-06-04T02:22:51;99452.06;;;7.94;100.00
58239;BME280;44037;55.638;37.356;2023-06-04T02:25:18;99454.00;;;8.08;100.00
58239;BME280;44037;55.638;37.356;2023-06-04T02:27:46;99459.38;;;8.22;100.00
58239;BME280;44037;55.638;37.356;2023-06-04T02:30:15;99457.84;;;8.33;100.00
58239;BME280;44037;55.638;37.356;2023-06-04T02:32:43;99458.84;;;8.41;100.00
58239;BME280;44037;55.638;37.356;2023-06-04T02:35:10;99459.84;;;8.51;100.00
58239;BME280;44037;55.638;37.356;2023-06-04T02:37:37;99462.59;;;8.62;100.00
58239;BME280;44037;55.638;37.356;2023-06-04T02:40:06;99471.34;;;8.72;100.00
58239;BME280;44037;55.638;37.356;2023-06-04T02:42:33;99474.94;;;8.82;100.00
58239;BME280;44037;55.638;37.356;2023-06-04T02:45:01;99470.75;;;8.90;100.00
58239;BME280;44037;55.638;37.356;2023-06-04T02:47:32;99477.72;;;8.97;100.00
58239;BME280;44037;55.638;37.356;2023-06-04T02:49:59;99477.81;;;9.03;100.00
58239;BME280;44037;55.638;37.356;2023-06-04T02:52:26;99476.97;;;9.07;100.00
58239;BME280;44037;55.638;37.356;2023-06-04T02:54:54;99481.38;;;9.15;100.00
58239;BME280;44037;55.638;37.356;2023-06-04T02:57:21;99487.50;;;9.21;100.00
58239;BME280;44037;55.638;37.356;2023-06-04T02:59:48;99493.53;;;9.22;100.00
58239;BME280;44037;55.638;37.356;2023-06-04T03:02:17;99494.41;;;9.22;100.00
58239;BME280;44037;55.638;37.356;2023-06-04T03:04:46;99493.56;;;9.25;100.00
58239;BME280;44037;55.638;37.356;2023-06-04T03:07:16;99509.19;;;9.33;100.00
58239;BME280;44037;55.638;37.356;2023-06-04T03:09:46;99505.78;;;9.37;100.00
58239;BME280;44037;55.638;37.356;2023-06-04T03:12:13;99504.94;;;9.40;100.00
58239;BME280;44037;55.638;37.356;2023-06-04T03:14:40;99510.13;;;9.41;100.00
58239;BME280;44037;55.638;37.356;2023-06-04T03:17:07;99511.06;;;9.45;100.00
58239;BME280;44037;55.638;37.356;2023-06-04T03:19:37;99518.88;;;9.49;100.00
58239;BME280;44037;55.638;37.356;2023-06-04T03:22:07;99517.13;;;9.48;100.00
58239;BME280;44037;55.638;37.356;2023-06-04T03:24:36;99529.16;;;9.48;100.00
58239;BME280;44037;55.638;37.356;2023-06-04T03:27:04;99528.31;;;9.49;100.00
58239;BME280;44037;55.638;37.356;2023-06-04T03:29:32;99528.31;;;9.47;100.00
58239;BME280;44037;55.638;37.356;2023-06-04T03:31:59;99531.75;;;9.45;100.00
58239;BME280;44037;55.638;37.356;2023-06-04T03:34:26;99536.03;;;9.44;100.00
58239;BME280;44037;55.638;37.356;2023-06-04T03:36:57;99536.91;;;9.45;100.00
58239;BME280;44037;55.638;37.356;2023-06-04T03:39:26;99530.03;;;9.47;100.00
58239;BME280;44037;55.638;37.356;2023-06-04T03:41:56;99535.28;;;9.55;100.00
58239;BME280;44037;55.638;37.356;2023-06-04T03:44:24;99544.06;;;9.67;100.00
58239;BME280;44037;55.638;37.356;2023-06-04T03:46:51;99536.34;;;9.72;100.00
58239;BME280;44037;55.638;37.356;2023-06-04T03:49:18;99545.81;;;9.72;100.00
58239;BME280;44037;55.638;37.356;2023-06-04T03:51:45;99546.63;;;9.66;100.00
58239;BME280;44037;55.638;37.356;2023-06-04T03:54:14;99540.59;;;9.64;100.00
58239;BME280;44037;55.638;37.356;2023-06-04T03:56:44;99553.56;;;9.70;100.00
58239;BME280;44037;55.638;37.356;2023-06-04T03:59:12;99557.94;;;9.76;100.00
58239;BME280;44037;55.638;37.356;2023-06-04T04:01:39;99560.59;;;9.80;100.00
58239;BME280;44037;55.638;37.356;2023-06-04T04:04:06;99558.88;;;9.81;100.00
58239;BME280;44037;55.638;37.356;2023-06-04T04:06:34;99558.88;;;9.84;100.00
58239;BME280;44037;55.638;37.356;2023-06-04T04:09:02;99552.91;;;9.88;100.00
58239;BME280;44037;55.638;37.356;2023-06-04T04:11:30;99559.06;;;9.98;100.00
58239;BME280;44037;55.638;37.356;2023-06-04T04:13:58;99559.09;;;10.04;100.00
58239;BME280;44037;55.638;37.356;2023-06-04T04:16:26;99559.22;;;10.13;100.00
58239;BME280;44037;55.638;37.356;2023-06-04T04:18:54;99564.50;;;10.26;100.00
58239;BME280;44037;55.638;37.356;2023-06-04T04:21:22;99563.72;;;10.36;100.00
58239;BME280;44037;55.638;37.356;2023-06-04T04:23:50;99563.00;;;10.50;100.00
58239;BME280;44037;55.638;37.356;2023-06-04T04:26:18;99565.66;;;10.60;100.00
58239;BME280;44037;55.638;37.356;2023-06-04T04:28:46;99563.13;;;10.64;100.00
58239;BME280;44037;55.638;37.356;2023-06-04T04:31:15;99567.41;;;10.62;100.00
58239;BME280;44037;55.638;37.356;2023-06-04T04:33:43;99573.47;;;10.65;100.00
58239;BME280;44037;55.638;37.356;2023-06-04T04:36:10;99573.53;;;10.71;100.00
58239;BME280;44037;55.638;37.356;2023-06-04T04:38:38;99569.22;;;10.75;100.00
58239;BME280;44037;55.638;37.356;2023-06-04T04:41:06;99565.78;;;10.76;100.00
58239;BME280;44037;55.638;37.356;2023-06-04T04:43:35;99572.75;;;10.80;100.00
58239;BME280;44037;55.638;37.356;2023-06-04T04:46:03;99571.06;;;10.87;100.00
58239;BME280;44037;55.638;37.356;2023-06-04T04:48:32;99578.84;;;10.88;100.00
58239;BME280;44037;55.638;37.356;2023-06-04T04:50:59;99577.09;;;10.86;100.00
58239;BME280;44037;55.638;37.356;2023-06-04T04:53:27;99583.13;;;10.86;100.00
58239;BME280;44037;55.638;37.356;2023-06-04T04:55:54;99582.31;;;10.92;100.00
58239;BME280;44037;55.638;37.356;2023-06-04T04:58:21;99572.84;;;10.97;100.00
58239;BME280;44037;55.638;37.356;2023-06-04T05:00:48;99574.63;;;11.03;100.00
58239;BME280;44037;55.638;37.356;2023-06-04T05:03:16;99580.72;;;11.13;100.00
58239;BME280;44037;55.638;37.356;2023-06-04T05:05:45;99581.59;;;11.18;100.00
58239;BME280;44037;55.638;37.356;2023-06-04T05:08:12;99572.06;;;11.12;100.00
58239;BME280;44037;55.638;37.356;2023-06-04T05:10:39;99583.28;;;11.11;100.00
58239;BME280;44037;55.638;37.356;2023-06-04T05:13:07;99583.28;;;11.11;100.00
58239;BME280;44037;55.638;37.356;2023-06-04T05:15:34;99585.97;;;11.24;100.00
58239;BME280;44037;55.638;37.356;2023-06-04T05:18:02;99583.44;;;11.39;100.00
58239;BME280;44037;55.638;37.356;2023-06-04T05:20:33;99568.81;;;11.49;100.00
58239;BME280;44037;55.638;37.356;2023-06-04T05:23:04;99578.31;;;11.51;100.00
58239;BME280;44037;55.638;37.356;2023-06-04T05:25:31;99570.56;;;11.58;100.00
58239;BME280;44037;55.638;37.356;2023-06-04T05:27:58;99583.63;;;11.79;100.00
58239;BME280;44037;55.638;37.356;2023-06-04T05:30:26;99572.41;;;11.94;100.00
58239;BME280;44037;55.638;37.356;2023-06-04T05:32:53;99567.31;;;12.18;99.26
58239;BME280;44037;55.638;37.356;2023-06-04T05:35:20;99572.47;;;12.14;98.76
58239;BME280;44037;55.638;37.356;2023-06-04T05:37:47;99573.34;;;12.18;97.88
58239;BME280;44037;55.638;37.356;2023-06-04T05:40:21;99578.56;;;12.26;95.19
58239;BME280;44037;55.638;37.356;2023-06-04T05:42:49;99576.84;;;12.28;97.44
58239;BME280;44037;55.638;37.356;2023-06-04T05:45:16;99573.38;;;12.44;97.89
58239;BME280;44037;55.638;37.356;2023-06-04T05:47:43;99579.44;;;12.68;93.16
58239;BME280;44037;55.638;37.356;2023-06-04T05:50:11;99571.66;;;12.71;92.43
58239;BME280;44037;55.638;37.356;2023-06-04T05:52:38;99579.44;;;12.88;92.69
58239;BME280;44037;55.638;37.356;2023-06-04T05:55:06;99575.03;;;13.23;91.86
58239;BME280;44037;55.638;37.356;2023-06-04T05:57:36;99576.69;;;13.55;89.47
58239;BME280;44037;55.638;37.356;2023-06-04T06:00:03;99579.19;;;13.78;88.09
58239;BME280;44037;55.638;37.356;2023-06-04T06:02:34;99580.06;;;13.71;83.89
58239;BME280;44037;55.638;37.356;2023-06-04T06:05:11;99572.25;;;13.74;79.71
58239;BME280;44037;55.638;37.356;2023-06-04T06:07:39;99573.16;;;13.72;81.27
58239;BME280;44037;55.638;37.356;2023-06-04T06:10:07;99584.38;;;13.81;82.86
58239;BME280;44037;55.638;37.356;2023-06-04T06:12:36;99577.47;;;13.77;81.09
58239;BME280;44037;55.638;37.356;2023-06-04T06:15:04;99580.03;;;13.79;81.02
58239;BME280;44037;55.638;37.356;2023-06-04T06:17:32;99579.97;;;13.94;81.88
58239;BME280;44037;55.638;37.356;2023-06-04T06:20:00;99584.25;;;14.05;79.42
58239;BME280;44037;55.638;37.356;2023-06-04T06:22:29;99580.84;;;13.93;79.75
58239;BME280;44037;55.638;37.356;2023-06-04T06:24:56;99584.34;;;13.88;80.24
58239;BME280;44037;55.638;37.356;2023-06-04T06:27:24;99583.50;;;13.84;79.68
58239;BME280;44037;55.638;37.356;2023-06-04T06:29:53;99588.66;;;13.90;79.71
58239;BME280;44037;55.638;37.356;2023-06-04T06:32:21;99588.44;;;14.27;81.19
58239;BME280;44037;55.638;37.356;2023-06-04T06:34:48;99585.66;;;14.52;82.35
58239;BME280;44037;55.638;37.356;2023-06-04T06:37:15;99579.34;;;14.84;82.05
58239;BME280;44037;55.638;37.356;2023-06-04T06:39:42;99582.56;;;15.11;79.26
58239;BME280;44037;55.638;37.356;2023-06-04T06:42:10;99578.88;;;15.29;76.74
58239;BME280;44037;55.638;37.356;2023-06-04T06:44:37;99572.91;;;15.19;71.49
58239;BME280;44037;55.638;37.356;2023-06-04T06:47:06;99573.97;;;15.01;71.99
58239;BME280;44037;55.638;37.356;2023-06-04T06:49:33;99576.56;;;15.00;72.34
58239;BME280;44037;55.638;37.356;2023-06-04T06:52:00;99572.19;;;15.05;71.18
58239;BME280;44037;55.638;37.356;2023-06-04T06:54:27;99571.28;;;15.09;72.44
58239;BME280;44037;55.638;37.356;2023-06-04T06:56:55;99570.25;;;15.23;71.59
58239;BME280;44037;55.638;37.356;2023-06-04T06:59:22;99578.88;;;15.29;71.29
58239;BME280;44037;55.638;37.356;2023-06-04T07:01:49;99565.59;;;15.49;68.71
58239;BME280;44037;55.638;37.356;2023-06-04T07:04:18;99576.97;;;15.45;69.40
58239;BME280;44037;55.638;37.356;2023-06-04T07:06:45;99576.94;;;15.48;71.34
58239;BME280;44037;55.638;37.356;2023-06-04T07:09:12;99590.66;;;15.63;67.88
58239;BME280;44037;55.638;37.356;2023-06-04T07:11:40;99582.06;;;15.55;64.68
58239;BME280;44037;55.638;37.356;2023-06-04T07:14:07;99584.88;;;15.38;65.41
58239;BME280;44037;55.638;37.356;2023-06-04T07:16:34;99585.94;;;15.19;66.76
58239;BME280;44037;55.638;37.356;2023-06-04T07:19:01;99585.19;;;15.07;67.68
58239;BME280;44037;55.638;37.356;2023-06-04T07:21:30;99582.69;;;14.97;69.47
58239;BME280;44037;55.638;37.356;2023-06-04T07:23:57;99584.38;;;15.00;70.44
58239;BME280;44037;55.638;37.356;2023-06-04T07:26:24;99579.13;;;15.06;68.91
58239;BME280;44037;55.638;37.356;2023-06-04T07:28:52;99583.34;;;15.16;69.90
58239;BME280;44037;55.638;37.356;2023-06-04T07:31:19;99581.34;;;15.42;70.08
58239;BME280;44037;55.638;37.356;2023-06-04T07:33:46;99583.47;;;15.80;69.46
58239;BME280;44037;55.638;37.356;2023-06-04T07:36:14;99582.06;;;16.20;66.02
58239;BME280;44037;55.638;37.356;2023-06-04T07:38:43;99588.91;;;16.31;62.00
58239;BME280;44037;55.638;37.356;2023-06-04T07:41:10;99586.97;;;16.43;63.57
58239;BME280;44037;55.638;37.356;2023-06-04T07:43:37;99590.84;;;16.72;61.13
58239;BME280;44037;55.638;37.356;2023-06-04T07:46:05;99588.75;;;16.93;60.80
58239;BME280;44037;55.638;37.356;2023-06-04T07:48:32;99583.44;;;16.99;61.96
58239;BME280;44037;55.638;37.356;2023-06-04T07:51:00;99584.31;;;17.00;62.05
58239;BME280;44037;55.638;37.356;2023-06-04T07:53:28;99592.88;;;17.08;58.85
58239;BME280;44037;55.638;37.356;2023-06-04T07:55:57;99587.25;;;17.30;57.54
58239;BME280;44037;55.638;37.356;2023-06-04T07:58:24;99587.50;;;17.61;58.08
58239;BME280;44037;55.638;37.356;2023-06-04T08:00:52;99583.53;;;17.84;52.14
58239;BME280;44037;55.638;37.356;2023-06-04T08:03:19;99574.25;;;17.69;52.77
58239;BME280;44037;55.638;37.356;2023-06-04T08:05:47;99585.03;;;17.54;54.63
58239;BME280;44037;55.638;37.356;2023-06-04T08:08:14;99582.25;;;17.61;53.55
58239;BME280;44037;55.638;37.356;2023-06-04T08:10:45;99576.38;;;17.50;55.34
58239;BME280;44037;55.638;37.356;2023-06-04T08:13:14;99583.44;;;17.45;55.74
58239;BME280;44037;55.638;37.356;2023-06-04T08:15:41;99578.28;;;17.42;57.05
58239;BME280;44037;55.638;37.356;2023-06-04T08:18:33;99588.66;;;17.46;53.37
58239;BME280;44037;55.638;37.356;2023-06-04T08:21:10;99586.59;;;17.17;53.05
58239;BME280;44037;55.638;37.356;2023-06-04T08:23:56;99589.84;;;16.81;51.99
58239;BME280;44037;55.638;37.356;2023-06-04T08:26:43;99598.88;;;16.63;52.68
58239;BME280;44037;55.638;37.356;2023-06-04T08:29:16;99598.31;;;16.44;53.96
58239;BME280;44037;55.638;37.356;2023-06-04T08:31:45;99599.44;;;16.24;54.70
58239;BME280;44037;55.638;37.356;2023-06-04T08:34:24;99600.50;;;16.12;56.13
58239;BME280;44037;55.638;37.356;2023-06-04T08:36:51;99599.59;;;16.15;56.31
58239;BME280;44037;55.638;37.356;2023-06-04T08:39:18;99610.56;;;16.39;56.85
58239;BME280;44037;55.638;37.356;2023-06-04T08:41:49;99600.63;;;16.61;53.48
58239;BME280;44037;55.638;37.356;2023-06-04T08:44:19;99598.78;;;16.68;53.79
58239;BME280;44037;55.638;37.356;2023-06-04T08:46:51;99599.56;;;16.74;54.20
58239;BME280;44037;55.638;37.356;2023-06-04T08:49:19;99603.69;;;16.86;53.77
58239;BME280;44037;55.638;37.356;2023-06-04T08:51:48;99599.25;;;16.92;54.19
58239;BME280;44037;55.638;37.356;2023-06-04T08:54:16;99603.53;;;16.97;52.23
58239;BME280;44037;55.638;37.356;2023-06-04T08:56:44;99596.53;;;16.98;51.72
58239;BME280;44037;55.638;37.356;2023-06-04T08:59:12;99598.19;;;17.03;53.55
58239;BME280;44037;55.638;37.356;2023-06-04T09:01:41;99605.81;;;17.17;51.13
58239;BME280;44037;55.638;37.356;2023-06-04T09:04:13;99598.00;;;17.14;49.90
58239;BME280;44037;55.638;37.356;2023-06-04T09:06:42;99601.41;;;17.18;49.98
58239;BME280;44037;55.638;37.356;2023-06-04T09:09:12;99602.81;;;17.38;50.63
58239;BME280;44037;55.638;37.356;2023-06-04T09:11:46;99602.22;;;17.65;50.11
58239;BME280;44037;55.638;37.356;2023-06-04T09:14:16;99609.72;;;17.84;49.62
58239;BME280;44037;55.638;37.356;2023-06-04T09:16:46;99606.81;;;17.98;48.51
58239;BME280;44037;55.638;37.356;2023-06-04T09:19:14;99611.78;;;18.12;45.18
58239;BME280;44037;55.638;37.356;2023-06-04T09:21:49;99616.41;;;18.01;40.76
58239;BME280;44037;55.638;37.356;2023-06-04T09:24:17;99608.09;;;17.78;41.24
58239;BME280;44037;55.638;37.356;2023-06-04T09:26:44;99609.19;;;17.68;41.51
58239;BME280;44037;55.638;37.356;2023-06-04T09:29:11;99604.84;;;17.65;41.36
58239;BME280;44037;55.638;37.356;2023-06-04T09:31:39;99606.44;;;17.74;42.05
58239;BME280;44037;55.638;37.356;2023-06-04T09:34:07;99606.84;;;17.96;41.46
58239;BME280;44037;55.638;37.356;2023-06-04T09:36:35;99609.31;;;18.04;41.30
58239;BME280;44037;55.638;37.356;2023-06-04T09:39:03;99609.44;;;18.00;41.33
58239;BME280;44037;55.638;37.356;2023-06-04T09:41:30;99606.00;;;17.94;42.82
58239;BME280;44037;55.638;37.356;2023-06-04T09:44:01;99605.97;;;17.98;42.26
58239;BME280;44037;55.638;37.356;2023-06-04T09:46:29;99606.28;;;17.82;40.48
58239;BME280;44037;55.638;37.356;2023-06-04T09:49:01;99595.13;;;17.28;41.03
58239;BME280;44037;55.638;37.356;2023-06-04T09:51:30;99595.13;;;16.77;42.87
58239;BME280;44037;55.638;37.356;2023-06-04T09:53:59;99599.75;;;16.62;42.98
58239;BME280;44037;55.638;37.356;2023-06-04T09:56:27;99589.53;;;16.47;42.93
58239;BME280;44037;55.638;37.356;2023-06-04T09:58:57;99601.81;;;16.43;43.47
58239;BME280;44037;55.638;37.356;2023-06-04T10:01:27;99597.94;;;16.64;44.81
58239;BME280;44037;55.638;37.356;2023-06-04T10:03:57;99591.19;;;17.06;45.26
58239;BME280;44037;55.638;37.356;2023-06-04T10:06:25;99590.13;;;17.61;42.80
58239;BME280;44037;55.638;37.356;2023-06-04T10:08:56;99594.78;;;17.89;43.25
58239;BME280;44037;55.638;37.356;2023-06-04T10:11:26;99594.25;;;18.14;43.22
58239;BME280;44037;55.638;37.356;2023-06-04T10:14:02;99591.91;;;18.39;40.12
58239;BME280;44037;55.638;37.356;2023-06-04T10:16:31;99597.13;;;18.41;38.56
58239;BME280;44037;55.638;37.356;2023-06-04T10:18:59;99591.34;;;18.26;38.45
58239;BME280;44037;55.638;37.356;2023-06-04T10:21:28;99603.75;;;18.18;39.09
58239;BME280;44037;55.638;37.356;2023-06-04T10:24:01;99597.63;;;18.19;40.91
58239;BME280;44037;55.638;37.356;2023-06-04T10:26:29;99593.88;;;18.31;40.48
58239;BME280;44037;55.638;37.356;2023-06-04T10:28:57;99593.66;;;18.40;39.33
58239;BME280;44037;55.638;37.356;2023-06-04T10:31:24;99594.59;;;18.36;39.28
58239;BME280;44037;55.638;37.356;2023-06-04T10:33:54;99589.19;;;18.44;40.45
58239;BME280;44037;55.638;37.356;2023-06-04T10:36:22;99589.91;;;18.85;39.95
58239;BME280;44037;55.638;37.356;2023-06-04T10:38:51;99583.66;;;19.26;40.19
58239;BME280;44037;55.638;37.356;2023-06-04T10:41:21;99580.31;;;19.51;39.72
58239;BME280;44037;55.638;37.356;2023-06-04T10:43:49;99574.25;;;19.48;36.70
58239;BME280;44037;55.638;37.356;2023-06-04T10:46:18;99588.28;;;19.16;36.85
58239;BME280;44037;55.638;37.356;2023-06-04T10:48:47;99581.22;;;18.83;37.96
58239;BME280;44037;55.638;37.356;2023-06-04T10:51:15;99589.88;;;18.52;38.28
58239;BME280;44037;55.638;37.356;2023-06-04T10:53:42;99588.56;;;18.33;38.81
58239;BME280;44037;55.638;37.356;2023-06-04T10:56:09;99591.47;;;18.20;38.87
58239;BME280;44037;55.638;37.356;2023-06-04T10:58:38;99600.59;;;18.04;38.78
58239;BME280;44037;55.638;37.356;2023-06-04T11:01:05;99594.69;;;17.92;39.53
58239;BME280;44037;55.638;37.356;2023-06-04T11:03:35;99599.88;;;17.95;38.88
58239;BME280;44037;55.638;37.356;2023-06-04T11:06:13;99600.47;;;18.08;39.08
58239;BME280;44037;55.638;37.356;2023-06-04T11:08:42;99602.47;;;18.36;37.43
58239;BME280;44037;55.638;37.356;2023-06-04T11:11:12;99596.72;;;18.58;37.04
58239;BME280;44037;55.638;37.356;2023-06-04T11:13:42;99593.44;;;18.84;37.26
58239;BME280;44037;55.638;37.356;2023-06-04T11:16:19;99590.16;;;19.11;37.50
58239;BME280;44037;55.638;37.356;2023-06-04T11:18:54;99589.59;;;19.31;35.29
58239;BME280;44037;55.638;37.356;2023-06-04T11:21:22;99584.28;;;19.34;35.61
58239;BME280;44037;55.638;37.356;2023-06-04T11:23:49;99580.81;;;19.33;35.99
58239;BME280;44037;55.638;37.356;2023-06-04T11:26:21;99578.88;;;19.07;36.02
58239;BME280;44037;55.638;37.356;2023-06-04T11:28:53;99589.47;;;18.69;36.80
58239;BME280;44037;55.638;37.356;2023-06-04T11:31:21;99591.84;;;18.42;37.69
58239;BME280;44037;55.638;37.356;2023-06-04T11:33:48;99592.16;;;18.30;37.45
58239;BME280;44037;55.638;37.356;2023-06-04T11:36:22;99596.16;;;18.45;36.82
58239;BME280;44037;55.638;37.356;2023-06-04T11:38:54;99587.63;;;18.71;35.31
58239;BME280;44037;55.638;37.356;2023-06-04T11:41:22;99588.84;;;18.93;35.66
58239;BME280;44037;55.638;37.356;2023-06-04T11:43:50;99584.06;;;19.10;35.06
58239;BME280;44037;55.638;37.356;2023-06-04T11:46:19;99587.53;;;19.11;35.31
58239;BME280;44037;55.638;37.356;2023-06-04T11:48:47;99588.41;;;19.11;34.76
58239;BME280;44037;55.638;37.356;2023-06-04T11:51:14;99592.91;;;19.06;34.74
58239;BME280;44037;55.638;37.356;2023-06-04T11:53:42;99593.16;;;18.97;33.81
58239;BME280;44037;55.638;37.356;2023-06-04T11:56:10;99592.66;;;18.81;34.56
58239;BME280;44037;55.638;37.356;2023-06-04T11:58:38;99601.63;;;18.72;35.07
58239;BME280;44037;55.638;37.356;2023-06-04T12:01:07;99594.66;;;18.71;34.60
58239;BME280;44037;55.638;37.356;2023-06-04T12:03:37;99599.06;;;18.70;35.39
58239;BME280;44037;55.638;37.356;2023-06-04T12:06:11;99598.50;;;18.91;35.75
58239;BME280;44037;55.638;37.356;2023-06-04T12:08:46;99596.94;;;19.19;35.14
58239;BME280;44037;55.638;37.356;2023-06-04T12:11:28;99597.19;;;19.42;35.68
58239;BME280;44037;55.638;37.356;2023-06-04T12:13:58;99595.75;;;19.63;35.06
58239;BME280;44037;55.638;37.356;2023-06-04T12:16:26;99595.47;;;19.72;33.88
58239;BME280;44037;55.638;37.356;2023-06-04T12:19:06;99590.44;;;19.64;34.47
58239;BME280;44037;55.638;37.356;2023-06-04T12:21:34;99591.06;;;19.43;33.96
58239;BME280;44037;55.638;37.356;2023-06-04T12:24:08;99594.63;;;19.07;33.77
58239;BME280;44037;55.638;37.356;2023-06-04T12:26:36;99598.03;;;18.76;34.41
58239;BME280;44037;55.638;37.356;2023-06-04T12:29:08;99595.63;;;18.67;35.36
58239;BME280;44037;55.638;37.356;2023-06-04T12:31:37;99601.50;;;18.77;34.75
58239;BME280;44037;55.638;37.356;2023-06-04T12:34:06;99599.84;;;18.74;35.14
58239;BME280;44037;55.638;37.356;2023-06-04T12:36:34;99608.84;;;18.64;35.26
58239;BME280;44037;55.638;37.356;2023-06-04T12:39:03;99601.16;;;18.54;35.88
58239;BME280;44037;55.638;37.356;2023-06-04T12:41:31;99600.38;;;18.51;35.28
58239;BME280;44037;55.638;37.356;2023-06-04T12:44:00;99606.59;;;18.47;35.36
58239;BME280;44037;55.638;37.356;2023-06-04T12:46:27;99600.50;;;18.46;35.02
58239;BME280;44037;55.638;37.356;2023-06-04T12:48:55;99596.75;;;18.56;35.23
58239;BME280;44037;55.638;37.356;2023-06-04T12:51:23;99598.66;;;18.50;34.80
58239;BME280;44037;55.638;37.356;2023-06-04T12:53:50;99597.69;;;18.16;36.39
58239;BME280;44037;55.638;37.356;2023-06-04T12:56:18;99591.81;;;18.05;36.21